Aviation Digital Data Service (ADDS)

Output produced by METARs form (0821 UTC 19 April 2019)
found at http://www.aviationweather.gov/metar/data/
 
METAR text: CYHD 190800Z AUTO 22007KT 9SM CLR 01/M06 A2992 RMK SLP150
Conditions at: CYHD (DRYDEN AIRPORT , ON, CA) observed 0800 UTC 19 April 2019
Temperature: 1.0°C (34°F)
Dewpoint: -6.0°C (21°F) [RH = 59%]
Pressure (altimeter): 29.92 inches Hg (1013.3 mb)
[Sea-level pressure: 1015.0 mb]
Winds: from the SW (220 degrees) at 8 MPH (7 knots; 3.6 m/s)
Visibility: 9 miles (14 km)
Ceiling: at least 12,000 feet AGL
Clouds: sky clear below 12,000 feet AGL
Weather: no significant weather observed at this time

METAR text: CYHD 190700Z AUTO 24005KT 9SM CLR 03/M07 A2994 RMK SLP154
Conditions at: CYHD (DRYDEN AIRPORT , ON, CA) observed 0700 UTC 19 April 2019
Temperature: 3.0°C (37°F)
Dewpoint: -7.0°C (19°F) [RH = 48%]
Pressure (altimeter): 29.94 inches Hg (1014.0 mb)
[Sea-level pressure: 1015.4 mb]
Winds: from the WSW (240 degrees) at 6 MPH (5 knots; 2.6 m/s)
Visibility: 9 miles (14 km)
Ceiling: at least 12,000 feet AGL
Clouds: sky clear below 12,000 feet AGL
Weather: no significant weather observed at this time

METAR text: CYHD 190600Z AUTO 21007KT 9SM CLR 04/M07 A2994 RMK SLP154
Conditions at: CYHD (DRYDEN AIRPORT , ON, CA) observed 0600 UTC 19 April 2019
Temperature: 4.0°C (39°F)
Dewpoint: -7.0°C (19°F) [RH = 44%]
Pressure (altimeter): 29.94 inches Hg (1014.0 mb)
[Sea-level pressure: 1015.4 mb]
Winds: from the SSW (210 degrees) at 8 MPH (7 knots; 3.6 m/s)
Visibility: 9 miles (14 km)
Ceiling: at least 12,000 feet AGL
Clouds: sky clear below 12,000 feet AGL
Weather: no significant weather observed at this time

METAR text: CYHD 190500Z AUTO 23006KT 9SM CLR 04/M07 A2994 RMK SLP154
Conditions at: CYHD (DRYDEN AIRPORT , ON, CA) observed 0500 UTC 19 April 2019
Temperature: 4.0°C (39°F)
Dewpoint: -7.0°C (19°F) [RH = 44%]
Pressure (altimeter): 29.94 inches Hg (1014.0 mb)
[Sea-level pressure: 1015.4 mb]
Winds: from the SW (230 degrees) at 7 MPH (6 knots; 3.1 m/s)
Visibility: 9 miles (14 km)
Ceiling: at least 12,000 feet AGL
Clouds: sky clear below 12,000 feet AGL
Weather: no significant weather observed at this time

METAR text: CYHD 190400Z AUTO 24005KT 9SM CLR 06/M08 A2994 RMK SLP156
Conditions at: CYHD (DRYDEN AIRPORT , ON, CA) observed 0400 UTC 19 April 2019
Temperature: 6.0°C (43°F)
Dewpoint: -8.0°C (18°F) [RH = 36%]
Pressure (altimeter): 29.94 inches Hg (1014.0 mb)
[Sea-level pressure: 1015.6 mb]
Winds: from the WSW (240 degrees) at 6 MPH (5 knots; 2.6 m/s)
Visibility: 9 miles (14 km)
Ceiling: at least 12,000 feet AGL
Clouds: sky clear below 12,000 feet AGL
Weather: no significant weather observed at this time

METAR text: CYHD 190300Z AUTO 24004KT 9SM CLR 07/M08 A2994 RMK SLP155
Conditions at: CYHD (DRYDEN AIRPORT , ON, CA) observed 0300 UTC 19 April 2019
Temperature: 7.0°C (45°F)
Dewpoint: -8.0°C (18°F) [RH = 33%]
Pressure (altimeter): 29.94 inches Hg (1014.0 mb)
[Sea-level pressure: 1015.5 mb]
Winds: from the WSW (240 degrees) at 5 MPH (4 knots; 2.1 m/s)
Visibility: 9 miles (14 km)
Ceiling: at least 12,000 feet AGL
Clouds: sky clear below 12,000 feet AGL
Weather: no significant weather observed at this time

METAR text: CYHD 190200Z AUTO 30004KT 9SM CLR 09/M08 A2993 RMK SLP152
Conditions at: CYHD (DRYDEN AIRPORT , ON, CA) observed 0200 UTC 19 April 2019
Temperature: 9.0°C (48°F)
Dewpoint: -8.0°C (18°F) [RH = 29%]
Pressure (altimeter): 29.93 inches Hg (1013.6 mb)
[Sea-level pressure: 1015.2 mb]
Winds: from the WNW (300 degrees) at 5 MPH (4 knots; 2.1 m/s)
Visibility: 9 miles (14 km)
Ceiling: at least 12,000 feet AGL
Clouds: sky clear below 12,000 feet AGL
Weather: no significant weather observed at this time

METAR text: CYHD 190100Z AUTO 32005KT 9SM CLR 10/M08 A2992 RMK SLP149
Conditions at: CYHD (DRYDEN AIRPORT , ON, CA) observed 0100 UTC 19 April 2019
Temperature: 10.0°C (50°F)
Dewpoint: -8.0°C (18°F) [RH = 27%]
Pressure (altimeter): 29.92 inches Hg (1013.3 mb)
[Sea-level pressure: 1014.9 mb]
Winds: from the NW (320 degrees) at 6 MPH (5 knots; 2.6 m/s)
Visibility: 9 miles (14 km)
Ceiling: at least 12,000 feet AGL
Clouds: sky clear below 12,000 feet AGL
Weather: no significant weather observed at this time

METAR text: CYHD 190000Z AUTO 34006KT 320V040 9SM CLR 12/M08 A2992 RMK SLP148
Conditions at: CYHD (DRYDEN AIRPORT , ON, CA) observed 0000 UTC 19 April 2019
Temperature: 12.0°C (54°F)
Dewpoint: -8.0°C (18°F) [RH = 24%]
Pressure (altimeter): 29.92 inches Hg (1013.3 mb)
[Sea-level pressure: 1014.8 mb]
Winds: from the NNW (340 degrees) at 7 MPH (6 knots; 3.1 m/s)
Visibility: 9 miles (14 km)
Ceiling: at least 12,000 feet AGL
Clouds: sky clear below 12,000 feet AGL
Weather: no significant weather observed at this time

METAR text: CYHD 182300Z AUTO 33007KT 300V050 9SM CLR 12/M08 A2991 RMK SLP145
Conditions at: CYHD (DRYDEN AIRPORT , ON, CA) observed 2300 UTC 18 April 2019
Temperature: 12.0°C (54°F)
Dewpoint: -8.0°C (18°F) [RH = 24%]
Pressure (altimeter): 29.91 inches Hg (1013.0 mb)
[Sea-level pressure: 1014.5 mb]
Winds: from the NNW (330 degrees) at 8 MPH (7 knots; 3.6 m/s)
Visibility: 9 miles (14 km)
Ceiling: at least 12,000 feet AGL
Clouds: sky clear below 12,000 feet AGL
Weather: no significant weather observed at this time

METAR text: CYHD 182200Z AUTO 34009KT 320V020 9SM CLR 12/M07 A2990 RMK SLP141
Conditions at: CYHD (DRYDEN AIRPORT , ON, CA) observed 2200 UTC 18 April 2019
Temperature: 12.0°C (54°F)
Dewpoint: -7.0°C (19°F) [RH = 26%]
Pressure (altimeter): 29.90 inches Hg (1012.6 mb)
[Sea-level pressure: 1014.1 mb]
Winds: from the NNW (340 degrees) at 10 MPH (9 knots; 4.6 m/s)
Visibility: 9 miles (14 km)
Ceiling: at least 12,000 feet AGL
Clouds: sky clear below 12,000 feet AGL
Weather: no significant weather observed at this time

METAR text: CYHD 182100Z AUTO 34004KT 300V060 9SM CLR 12/M06 A2990 RMK SLP142
Conditions at: CYHD (DRYDEN AIRPORT , ON, CA) observed 2100 UTC 18 April 2019
Temperature: 12.0°C (54°F)
Dewpoint: -6.0°C (21°F) [RH = 28%]
Pressure (altimeter): 29.90 inches Hg (1012.6 mb)
[Sea-level pressure: 1014.2 mb]
Winds: from the NNW (340 degrees) at 5 MPH (4 knots; 2.1 m/s)
Visibility: 9 miles (14 km)
Ceiling: at least 12,000 feet AGL
Clouds: sky clear below 12,000 feet AGL
Weather: no significant weather observed at this time

METAR text: CYHD 182000Z AUTO 02008KT 310V050 9SM CLR 11/M06 A2991 RMK SLP144
Conditions at: CYHD (DRYDEN AIRPORT , ON, CA) observed 2000 UTC 18 April 2019
Temperature: 11.0°C (52°F)
Dewpoint: -6.0°C (21°F) [RH = 30%]
Pressure (altimeter): 29.91 inches Hg (1013.0 mb)
[Sea-level pressure: 1014.4 mb]
Winds: from the NNE (20 degrees) at 9 MPH (8 knots; 4.1 m/s)
Visibility: 9 miles (14 km)
Ceiling: at least 12,000 feet AGL
Clouds: sky clear below 12,000 feet AGL
Weather: no significant weather observed at this time

METAR text: CYHD 181900Z AUTO 36007KT 320V080 9SM CLR 11/M05 A2991 RMK SLP144
Conditions at: CYHD (DRYDEN AIRPORT , ON, CA) observed 1900 UTC 18 April 2019
Temperature: 11.0°C (52°F)
Dewpoint: -5.0°C (23°F) [RH = 32%]
Pressure (altimeter): 29.91 inches Hg (1013.0 mb)
[Sea-level pressure: 1014.4 mb]
Winds: from the N (360 degrees) at 8 MPH (7 knots; 3.6 m/s)
Visibility: 9 miles (14 km)
Ceiling: at least 12,000 feet AGL
Clouds: sky clear below 12,000 feet AGL
Weather: no significant weather observed at this time

METAR text: CYHD 181800Z AUTO 05008G16KT 020V080 9SM CLR 10/M05 A2991 RMK SLP144
Conditions at: CYHD (DRYDEN AIRPORT , ON, CA) observed 1800 UTC 18 April 2019
Temperature: 10.0°C (50°F)
Dewpoint: -5.0°C (23°F) [RH = 34%]
Pressure (altimeter): 29.91 inches Hg (1013.0 mb)
[Sea-level pressure: 1014.4 mb]
Winds: from the NE (50 degrees) at 9 MPH (8 knots; 4.1 m/s)
gusting to 18 MPH (16 knots; 8.2 m/s)
Visibility: 9 miles (14 km)
Ceiling: at least 12,000 feet AGL
Clouds: sky clear below 12,000 feet AGL
Weather: no significant weather observed at this time

METAR text: CYHD 181700Z AUTO 04010G18KT 010V080 9SM CLR 09/M03 A2989 RMK SLP139
Conditions at: CYHD (DRYDEN AIRPORT , ON, CA) observed 1700 UTC 18 April 2019
Temperature: 9.0°C (48°F)
Dewpoint: -3.0°C (27°F) [RH = 43%]
Pressure (altimeter): 29.89 inches Hg (1012.3 mb)
[Sea-level pressure: 1013.9 mb]
Winds: from the NE (40 degrees) at 12 MPH (10 knots; 5.1 m/s)
gusting to 21 MPH (18 knots; 9.3 m/s)
Visibility: 9 miles (14 km)
Ceiling: at least 12,000 feet AGL
Clouds: sky clear below 12,000 feet AGL
Weather: no significant weather observed at this time

METAR text: CYHD 181600Z AUTO 04010G17KT 9SM CLR 09/M02 A2987 RMK SLP133
Conditions at: CYHD (DRYDEN AIRPORT , ON, CA) observed 1600 UTC 18 April 2019
Temperature: 9.0°C (48°F)
Dewpoint: -2.0°C (28°F) [RH = 46%]
Pressure (altimeter): 29.87 inches Hg (1011.6 mb)
[Sea-level pressure: 1013.3 mb]
Winds: from the NE (40 degrees) at 12 MPH (10 knots; 5.1 m/s)
gusting to 20 MPH (17 knots; 8.7 m/s)
Visibility: 9 miles (14 km)
Ceiling: at least 12,000 feet AGL
Clouds: sky clear below 12,000 feet AGL
Weather: no significant weather observed at this time

METAR text: CYHD 181500Z AUTO 04008KT 9SM CLR 07/M01 A2986 RMK SLP128
Conditions at: CYHD (DRYDEN AIRPORT , ON, CA) observed 1500 UTC 18 April 2019
Temperature: 7.0°C (45°F)
Dewpoint: -1.0°C (30°F) [RH = 57%]
Pressure (altimeter): 29.86 inches Hg (1011.3 mb)
[Sea-level pressure: 1012.8 mb]
Winds: from the NE (40 degrees) at 9 MPH (8 knots; 4.1 m/s)
Visibility: 9 miles (14 km)
Ceiling: at least 12,000 feet AGL
Clouds: sky clear below 12,000 feet AGL
Weather: no significant weather observed at this time

METAR text: CYHD 181400Z AUTO 06007KT 350V090 9SM CLR 05/M02 A2986 RMK SLP129
Conditions at: CYHD (DRYDEN AIRPORT , ON, CA) observed 1400 UTC 18 April 2019
Temperature: 5.0°C (41°F)
Dewpoint: -2.0°C (28°F) [RH = 60%]
Pressure (altimeter): 29.86 inches Hg (1011.3 mb)
[Sea-level pressure: 1012.9 mb]
Winds: from the ENE (60 degrees) at 8 MPH (7 knots; 3.6 m/s)
Visibility: 9 miles (14 km)
Ceiling: at least 12,000 feet AGL
Clouds: sky clear below 12,000 feet AGL
Weather: no significant weather observed at this time

METAR text: CYHD 181200Z AUTO 04005KT 9SM BKN190 M00/M03 A2983 RMK SLP122
Conditions at: CYHD (DRYDEN AIRPORT , ON, CA) observed 1200 UTC 18 April 2019
Temperature: 0.0°C (32°F)
Dewpoint: -3.0°C (27°F) [RH = 80%]
Pressure (altimeter): 29.83 inches Hg (1010.2 mb)
[Sea-level pressure: 1012.2 mb]
Winds: from the NE (40 degrees) at 6 MPH (5 knots; 2.6 m/s)
Visibility: 9 miles (14 km)
Ceiling: 19000 feet AGL
Clouds: broken clouds at 19000 feet AGL
Weather: no significant weather observed at this time

METAR text: CYHD 181100Z AUTO 03005KT 9SM OVC210 M00/M03 A2981 RMK SLP113
Conditions at: CYHD (DRYDEN AIRPORT , ON, CA) observed 1100 UTC 18 April 2019
Temperature: 0.0°C (32°F)
Dewpoint: -3.0°C (27°F) [RH = 80%]
Pressure (altimeter): 29.81 inches Hg (1009.6 mb)
[Sea-level pressure: 1011.3 mb]
Winds: from the NNE (30 degrees) at 6 MPH (5 knots; 2.6 m/s)
Visibility: 9 miles (14 km)
Ceiling: 21000 feet AGL
Clouds: overcast cloud deck at 21000 feet AGL
Weather: no significant weather observed at this time

METAR text: CYHD 181000Z AUTO 03007KT 9SM BKN210 OVC230 01/M03 A2980 RMK SLP108
Conditions at: CYHD (DRYDEN AIRPORT , ON, CA) observed 1000 UTC 18 April 2019
Temperature: 1.0°C (34°F)
Dewpoint: -3.0°C (27°F) [RH = 75%]
Pressure (altimeter): 29.80 inches Hg (1009.2 mb)
[Sea-level pressure: 1010.8 mb]
Winds: from the NNE (30 degrees) at 8 MPH (7 knots; 3.6 m/s)
Visibility: 9 miles (14 km)
Ceiling: 21000 feet AGL
Clouds: broken clouds at 21000 feet AGL
overcast cloud deck at 23000 feet AGL
Weather: no significant weather observed at this time

METAR text: CYHD 180900Z AUTO 02006KT 9SM BKN200 OVC220 01/M03 A2979 RMK SLP105
Conditions at: CYHD (DRYDEN AIRPORT , ON, CA) observed 0900 UTC 18 April 2019
Temperature: 1.0°C (34°F)
Dewpoint: -3.0°C (27°F) [RH = 75%]
Pressure (altimeter): 29.79 inches Hg (1008.9 mb)
[Sea-level pressure: 1010.5 mb]
Winds: from the NNE (20 degrees) at 7 MPH (6 knots; 3.1 m/s)
Visibility: 9 miles (14 km)
Ceiling: 20000 feet AGL
Clouds: broken clouds at 20000 feet AGL
overcast cloud deck at 22000 feet AGL
Weather: no significant weather observed at this time

METAR text: CYHD 180800Z AUTO 03007KT 9SM SCT190 BKN210 02/M02 A2980 RMK SLP107
Conditions at: CYHD (DRYDEN AIRPORT , ON, CA) observed 0800 UTC 18 April 2019
Temperature: 2.0°C (36°F)
Dewpoint: -2.0°C (28°F) [RH = 75%]
Pressure (altimeter): 29.80 inches Hg (1009.2 mb)
[Sea-level pressure: 1010.7 mb]
Winds: from the NNE (30 degrees) at 8 MPH (7 knots; 3.6 m/s)
Visibility: 9 miles (14 km)
Ceiling: 21000 feet AGL
Clouds: scattered clouds at 19000 feet AGL
broken clouds at 21000 feet AGL
Weather: no significant weather observed at this time

METAR text: CYHD 180700Z AUTO 03005KT 9SM BKN190 OVC220 02/M02 A2981 RMK SLP113
Conditions at: CYHD (DRYDEN AIRPORT , ON, CA) observed 0700 UTC 18 April 2019
Temperature: 2.0°C (36°F)
Dewpoint: -2.0°C (28°F) [RH = 75%]
Pressure (altimeter): 29.81 inches Hg (1009.6 mb)
[Sea-level pressure: 1011.3 mb]
Winds: from the NNE (30 degrees) at 6 MPH (5 knots; 2.6 m/s)
Visibility: 9 miles (14 km)
Ceiling: 19000 feet AGL
Clouds: broken clouds at 19000 feet AGL
overcast cloud deck at 22000 feet AGL
Weather: no significant weather observed at this time

METAR text: CYHD 180600Z AUTO 04007KT 9SM BKN190 OVC210 03/M02 A2982 RMK SLP114
Conditions at: CYHD (DRYDEN AIRPORT , ON, CA) observed 0600 UTC 18 April 2019
Temperature: 3.0°C (37°F)
Dewpoint: -2.0°C (28°F) [RH = 70%]
Pressure (altimeter): 29.82 inches Hg (1009.9 mb)
[Sea-level pressure: 1011.4 mb]
Winds: from the NE (40 degrees) at 8 MPH (7 knots; 3.6 m/s)
Visibility: 9 miles (14 km)
Ceiling: 19000 feet AGL
Clouds: broken clouds at 19000 feet AGL
overcast cloud deck at 21000 feet AGL
Weather: no significant weather observed at this time

METAR text: CYHD 180500Z AUTO 04007KT 9SM OVC190 03/M02 A2982 RMK SLP117
Conditions at: CYHD (DRYDEN AIRPORT , ON, CA) observed 0500 UTC 18 April 2019
Temperature: 3.0°C (37°F)
Dewpoint: -2.0°C (28°F) [RH = 70%]
Pressure (altimeter): 29.82 inches Hg (1009.9 mb)
[Sea-level pressure: 1011.7 mb]
Winds: from the NE (40 degrees) at 8 MPH (7 knots; 3.6 m/s)
Visibility: 9 miles (14 km)
Ceiling: 19000 feet AGL
Clouds: overcast cloud deck at 19000 feet AGL
Weather: no significant weather observed at this time

METAR text: CYHD 180400Z AUTO 03005KT 9SM FEW160 OVC180 04/M02 A2983 RMK SLP118
Conditions at: CYHD (DRYDEN AIRPORT , ON, CA) observed 0400 UTC 18 April 2019
Temperature: 4.0°C (39°F)
Dewpoint: -2.0°C (28°F) [RH = 65%]
Pressure (altimeter): 29.83 inches Hg (1010.2 mb)
[Sea-level pressure: 1011.8 mb]
Winds: from the NNE (30 degrees) at 6 MPH (5 knots; 2.6 m/s)
Visibility: 9 miles (14 km)
Ceiling: 18000 feet AGL
Clouds: few clouds at 16000 feet AGL
overcast cloud deck at 18000 feet AGL
Weather: no significant weather observed at this time

METAR text: CYHD 180300Z AUTO 01005KT 9SM OVC170 05/M02 A2983 RMK SLP118
Conditions at: CYHD (DRYDEN AIRPORT , ON, CA) observed 0300 UTC 18 April 2019
Temperature: 5.0°C (41°F)
Dewpoint: -2.0°C (28°F) [RH = 60%]
Pressure (altimeter): 29.83 inches Hg (1010.2 mb)
[Sea-level pressure: 1011.8 mb]
Winds: from the N (10 degrees) at 6 MPH (5 knots; 2.6 m/s)
Visibility: 9 miles (14 km)
Ceiling: 17000 feet AGL
Clouds: overcast cloud deck at 17000 feet AGL
Weather: no significant weather observed at this time

METAR text: CYHD 180200Z AUTO 03004KT 9SM OVC160 06/M03 A2982 RMK SLP118
Conditions at: CYHD (DRYDEN AIRPORT , ON, CA) observed 0200 UTC 18 April 2019
Temperature: 6.0°C (43°F)
Dewpoint: -3.0°C (27°F) [RH = 52%]
Pressure (altimeter): 29.82 inches Hg (1009.9 mb)
[Sea-level pressure: 1011.8 mb]
Winds: from the NNE (30 degrees) at 5 MPH (4 knots; 2.1 m/s)
Visibility: 9 miles (14 km)
Ceiling: 16000 feet AGL
Clouds: overcast cloud deck at 16000 feet AGL
Weather: no significant weather observed at this time

METAR text: CYHD 180100Z AUTO 02004KT 9SM BKN170 07/M03 A2981 RMK SLP114
Conditions at: CYHD (DRYDEN AIRPORT , ON, CA) observed 0100 UTC 18 April 2019
Temperature: 7.0°C (45°F)
Dewpoint: -3.0°C (27°F) [RH = 49%]
Pressure (altimeter): 29.81 inches Hg (1009.6 mb)
[Sea-level pressure: 1011.4 mb]
Winds: from the NNE (20 degrees) at 5 MPH (4 knots; 2.1 m/s)
Visibility: 9 miles (14 km)
Ceiling: 17000 feet AGL
Clouds: broken clouds at 17000 feet AGL
Weather: no significant weather observed at this time

METAR text: CYHD 180000Z AUTO 01007KT 9SM CLR 08/M02 A2982 RMK SLP116
Conditions at: CYHD (DRYDEN AIRPORT , ON, CA) observed 0000 UTC 18 April 2019
Temperature: 8.0°C (46°F)
Dewpoint: -2.0°C (28°F) [RH = 49%]
Pressure (altimeter): 29.82 inches Hg (1009.9 mb)
[Sea-level pressure: 1011.6 mb]
Winds: from the N (10 degrees) at 8 MPH (7 knots; 3.6 m/s)
Visibility: 9 miles (14 km)
Ceiling: at least 12,000 feet AGL
Clouds: sky clear below 12,000 feet AGL
Weather: no significant weather observed at this time

METAR text: CYHD 172300Z AUTO 05010KT 9SM CLR 08/M01 A2983 RMK SLP119
Conditions at: CYHD (DRYDEN AIRPORT , ON, CA) observed 2300 UTC 17 April 2019
Temperature: 8.0°C (46°F)
Dewpoint: -1.0°C (30°F) [RH = 53%]
Pressure (altimeter): 29.83 inches Hg (1010.2 mb)
[Sea-level pressure: 1011.9 mb]
Winds: from the NE (50 degrees) at 12 MPH (10 knots; 5.1 m/s)
Visibility: 9 miles (14 km)
Ceiling: at least 12,000 feet AGL
Clouds: sky clear below 12,000 feet AGL
Weather: no significant weather observed at this time

METAR text: CYHD 172200Z AUTO 06008KT 9SM BKN140 09/M01 A2983 RMK SLP120
Conditions at: CYHD (DRYDEN AIRPORT , ON, CA) observed 2200 UTC 17 April 2019
Temperature: 9.0°C (48°F)
Dewpoint: -1.0°C (30°F) [RH = 49%]
Pressure (altimeter): 29.83 inches Hg (1010.2 mb)
[Sea-level pressure: 1012.0 mb]
Winds: from the ENE (60 degrees) at 9 MPH (8 knots; 4.1 m/s)
Visibility: 9 miles (14 km)
Ceiling: 14000 feet AGL
Clouds: broken clouds at 14000 feet AGL
Weather: no significant weather observed at this time

METAR text: CYHD 172100Z AUTO 04003KT 360V080 9SM SCT130 10/M01 A2985 RMK SLP124
Conditions at: CYHD (DRYDEN AIRPORT , ON, CA) observed 2100 UTC 17 April 2019
Temperature: 10.0°C (50°F)
Dewpoint: -1.0°C (30°F) [RH = 46%]
Pressure (altimeter): 29.85 inches Hg (1010.9 mb)
[Sea-level pressure: 1012.4 mb]
Winds: from the NE (40 degrees) at 3 MPH (3 knots; 1.5 m/s)
Visibility: 9 miles (14 km)
Ceiling: at least 12,000 feet AGL
Clouds: scattered clouds at 13000 feet AGL
Weather: no significant weather observed at this time

Forecast for: CYHD (DRYDEN AIRPORT , ON, CA)
Text: TAF CYHD 190738Z 1908/1920 24005KT P6SM SKC
Forecast period: 0800 to 1200 UTC 19 April 2019
Forecast type: FROM: standard forecast or significant change
Winds: from the WSW (240 degrees) at 6 MPH (5 knots; 2.6 m/s)
Visibility: 6 or more miles 10+ km)
Clouds: clear skies
Weather: no significant weather forecast for this period
Text: BECMG 1912/1914 22012KT
Forecast period: 1200 to 1500 UTC 19 April 2019
Forecast type: BECOMING: Conditions expected to become as follows by 1400 UTC 19 April 2019
Winds: from the SW (220 degrees) at 14 MPH (12 knots; 6.2 m/s)
Visibility: 6 or more miles 10+ km)
Clouds: clear skies
Weather: no significant weather forecast for this period
Text: BECMG 1915/1917 22012G22KT RMK FCST BASED ON AUTO OBS. NXT FCST BY 191400Z
Forecast period: 1500 to 2000 UTC 19 April 2019
Forecast type: BECOMING: Conditions expected to become as follows by 1700 UTC 19 April 2019
Winds: from the SW (220 degrees) at 14 MPH (12 knots; 6.2 m/s)
gusting to 25 MPH (22 knots; 11.3 m/s)
Visibility: 6 or more miles 10+ km)
Clouds: clear skies
Weather: no significant weather forecast for this period